Time;durP1;ratioP1;P1;durP2;ratioP2;P2;SDS_P1;SDS_P2;PMS_P1;PMS_P2;Temp;Humidity;BMP_temperature;BMP_pressure;BME280_temperature;BME280_humidity;BME280_pressure;Samples;Min_cycle;Max_cycle;Signal;HPM_P1;HPM_P2
2021/05/19 00:00:56;;;;;;;2.08;1.30;;;9.70;95.70;;;;;;5055903;28;20025;-79
2021/05/19 00:03:21;;;;;;;1.92;1.58;;;9.60;95.80;;;;;;5056182;28;20056;-79
2021/05/19 00:05:48;;;;;;;1.90;1.45;;;9.60;95.90;;;;;;5053598;28;20112;-79
2021/05/19 00:08:13;;;;;;;4.53;2.25;;;9.70;96.00;;;;;;5054412;28;20032;-78
2021/05/19 00:10:39;;;;;;;4.13;2.90;;;9.60;96.20;;;;;;5072092;28;20025;-78
2021/05/19 00:13:06;;;;;;;2.03;1.70;;;9.60;96.50;;;;;;5056401;28;20021;-79
2021/05/19 00:15:32;;;;;;;1.77;1.45;;;9.50;97.00;;;;;;5059126;28;20024;-78
2021/05/19 00:18:03;;;;;;;3.35;1.77;;;9.40;97.00;;;;;;5056235;28;21460;-79
2021/05/19 00:20:29;;;;;;;7.25;3.03;;;9.50;97.20;;;;;;5055952;28;20033;-79
2021/05/19 00:22:55;;;;;;;6.90;4.43;;;9.50;97.30;;;;;;5053197;28;20017;-79
2021/05/19 00:25:20;;;;;;;8.85;4.43;;;9.50;97.50;;;;;;5054011;28;20051;-79
2021/05/19 00:27:46;;;;;;;6.47;4.57;;;9.60;97.60;;;;;;5056334;28;20071;-79
2021/05/19 00:30:16;;;;;;;4.75;3.60;;;9.60;97.70;;;;;;5056082;28;20028;-79
2021/05/19 00:32:42;;;;;;;5.60;4.35;;;9.60;97.80;;;;;;5072790;28;20021;-79
2021/05/19 00:35:08;;;;;;;5.60;4.03;;;9.60;98.00;;;;;;5055116;28;20083;-79
2021/05/19 00:37:33;;;;;;;6.15;4.22;;;9.50;98.20;;;;;;5054491;28;20404;-78
2021/05/19 00:39:59;;;;;;;5.25;4.18;;;9.50;98.40;;;;;;5057712;28;20500;-79
2021/05/19 00:42:25;;;;;;;6.88;4.97;;;9.50;98.50;;;;;;5055254;28;20028;-79
2021/05/19 00:44:51;;;;;;;7.93;5.75;;;9.50;98.80;;;;;;5056120;28;20387;-78
2021/05/19 00:47:37;;;;;;;8.77;6.20;;;9.40;99.60;;;;;;5054339;28;20017;-79
2021/05/19 00:50:06;;;;;;;10.35;6.03;;;9.30;99.90;;;;;;5054248;28;20021;-79
2021/05/19 00:52:31;;;;;;;8.57;6.03;;;9.20;99.90;;;;;;5053355;28;20075;-79
2021/05/19 00:54:57;;;;;;;7.68;6.55;;;9.10;99.90;;;;;;5076055;28;20021;-79
2021/05/19 00:57:22;;;;;;;9.55;6.82;;;9.00;99.90;;;;;;5058164;28;20091;-79
2021/05/19 00:59:50;;;;;;;9.23;7.32;;;9.00;99.90;;;;;;5055035;28;20435;-79
2021/05/19 01:02:15;;;;;;;7.80;6.43;;;8.90;99.90;;;;;;5059509;28;20559;-78
2021/05/19 01:04:41;;;;;;;10.13;6.40;;;8.80;99.90;;;;;;5054146;28;20111;-79
2021/05/19 01:07:27;;;;;;;8.40;6.20;;;8.80;99.90;;;;;;5053984;28;20017;-78
2021/05/19 01:09:53;;;;;;;7.68;6.20;;;8.80;99.90;;;;;;5051911;28;20023;-78
2021/05/19 01:12:22;;;;;;;9.75;6.68;;;8.80;99.90;;;;;;5057847;28;20091;-79
2021/05/19 01:14:49;;;;;;;10.33;8.03;;;8.80;99.90;;;;;;5055129;28;20024;-79
2021/05/19 01:17:15;;;;;;;9.70;7.35;;;8.80;99.90;;;;;;5057261;28;20637;-78
2021/05/19 01:19:44;;;;;;;10.48;7.85;;;8.80;99.90;;;;;;5052749;28;20476;-79
2021/05/19 01:22:27;;;;;;;9.57;7.20;;;8.80;99.90;;;;;;5054287;28;20021;-79
2021/05/19 01:24:59;;;;;;;9.23;7.13;;;8.80;99.90;;;;;;5053136;28;20021;-78
2021/05/19 01:27:25;;;;;;;12.15;7.97;;;8.90;99.90;;;;;;5055340;28;20021;-79
2021/05/19 01:29:54;;;;;;;10.63;8.00;;;8.90;99.90;;;;;;5053682;28;20383;-79
2021/05/19 01:32:20;;;;;;;10.37;7.97;;;8.90;99.90;;;;;;5056362;28;20174;-78
2021/05/19 01:34:46;;;;;;;13.63;8.95;;;8.80;99.90;;;;;;5054227;28;20146;-79
2021/05/19 01:37:14;;;;;;;9.07;7.72;;;8.70;99.90;;;;;;5053531;28;20119;-78
2021/05/19 01:39:39;;;;;;;11.50;7.93;;;8.70;99.90;;;;;;5056637;28;20087;-79
2021/05/19 01:42:06;;;;;;;10.07;8.63;;;8.70;99.90;;;;;;5054405;28;20413;-79
2021/05/19 01:44:32;;;;;;;12.20;7.78;;;8.60;99.90;;;;;;5060444;28;20021;-78
2021/05/19 01:46:57;;;;;;;8.98;7.75;;;8.60;99.90;;;;;;5080007;28;20021;-78
2021/05/19 01:49:29;;;;;;;12.13;8.48;;;8.60;99.90;;;;;;5081200;28;20016;-78
2021/05/19 01:52:02;;;;;;;13.07;8.82;;;8.60;99.90;;;;;;5078691;28;20065;-77
2021/05/19 01:54:31;;;;;;;11.43;7.57;;;8.60;99.90;;;;;;5072051;28;20040;-78
2021/05/19 01:56:57;;;;;;;;;;;8.60;99.90;;;;;;5057278;28;20055;-78
2021/05/19 01:59:23;;;;;;;13.32;8.52;;;8.60;99.90;;;;;;5054051;28;19932;-78
2021/05/19 02:01:49;;;;;;;12.48;9.48;;;8.60;99.90;;;;;;5055088;28;20025;-79
2021/05/19 02:04:16;;;;;;;10.00;8.38;;;8.50;99.90;;;;;;5051946;28;20037;-79
2021/05/19 02:06:55;;;;;;;11.30;8.70;;;8.50;99.90;;;;;;5053290;28;20039;-79
2021/05/19 02:09:22;;;;;;;11.20;8.65;;;8.60;99.90;;;;;;5052150;28;20491;-78
2021/05/19 02:11:49;;;;;;;11.73;9.10;;;8.50;99.90;;;;;;5054319;28;20451;-78
2021/05/19 02:14:15;;;;;;;9.98;8.55;;;8.50;99.90;;;;;;5055669;28;20056;-79
2021/05/19 02:16:41;;;;;;;11.27;8.32;;;8.50;99.90;;;;;;5057715;28;20048;-78
2021/05/19 02:19:09;;;;;;;9.18;7.57;;;8.50;99.90;;;;;;5059085;28;20021;-78
2021/05/19 02:21:42;;;;;;;10.10;8.13;;;8.50;99.90;;;;;;5060101;28;20028;-78
2021/05/19 02:24:10;;;;;;;9.77;7.78;;;8.50;99.90;;;;;;5057102;28;20033;-78
2021/05/19 02:26:36;;;;;;;9.82;7.47;;;8.50;99.90;;;;;;5074622;28;20476;-78
2021/05/19 02:29:02;;;;;;;11.00;9.02;;;8.50;99.90;;;;;;5060987;28;20044;-78
2021/05/19 02:31:28;;;;;;;9.88;8.00;;;8.50;99.90;;;;;;5058248;28;20099;-78
2021/05/19 02:33:53;;;;;;;10.65;8.43;;;8.50;99.90;;;;;;5058590;28;20516;-79
2021/05/19 02:36:19;;;;;;;10.55;8.32;;;8.50;99.90;;;;;;5057807;28;20053;-78
2021/05/19 02:38:45;;;;;;;10.75;8.48;;;8.50;99.90;;;;;;5058363;28;20392;-78
2021/05/19 02:41:10;;;;;;;9.40;7.85;;;8.50;99.90;;;;;;5058345;28;20071;-78
2021/05/19 02:43:36;;;;;;;12.07;9.55;;;8.40;99.90;;;;;;5058757;28;20082;-78
2021/05/19 02:46:02;;;;;;;11.93;9.75;;;8.40;99.90;;;;;;5057062;28;20018;-79
2021/05/19 02:48:28;;;;;;;11.57;9.43;;;8.40;99.90;;;;;;5057515;28;20476;-79
2021/05/19 02:50:53;;;;;;;12.60;8.25;;;8.30;99.90;;;;;;5056324;28;20147;-78
2021/05/19 02:53:19;;;;;;;10.90;9.18;;;8.30;99.90;;;;;;5058420;28;20074;-78
2021/05/19 02:55:44;;;;;;;12.10;8.88;;;8.30;99.90;;;;;;5057831;28;20063;-78
2021/05/19 02:58:10;;;;;;;12.32;9.07;;;8.40;99.90;;;;;;5073581;28;20107;-78
2021/05/19 03:00:36;;;;;;;10.73;9.35;;;8.30;99.90;;;;;;5058459;28;20028;-78
2021/05/19 03:03:01;;;;;;;9.38;7.57;;;8.30;99.90;;;;;;5056864;28;20017;-78
2021/05/19 03:05:29;;;;;;;17.23;10.18;;;8.30;99.90;;;;;;5057061;28;20098;-78
2021/05/19 03:07:55;;;;;;;11.02;9.82;;;8.30;99.90;;;;;;5056120;28;20009;-79
2021/05/19 03:10:21;;;;;;;12.50;9.88;;;8.30;99.90;;;;;;5073222;28;20025;-78
2021/05/19 03:12:47;;;;;;;12.30;8.57;;;8.40;99.90;;;;;;5058054;28;20029;-78
2021/05/19 03:15:13;;;;;;;10.18;8.50;;;8.40;99.90;;;;;;5058201;28;20541;-78
2021/05/19 03:17:38;;;;;;;9.95;8.00;;;8.40;99.90;;;;;;5070500;28;20078;-78
2021/05/19 03:20:05;;;;;;;10.07;8.18;;;8.50;99.90;;;;;;5056435;28;20036;-78
2021/05/19 03:22:30;;;;;;;7.65;6.85;;;8.60;99.90;;;;;;5056968;28;20078;-78
2021/05/19 03:24:56;;;;;;;7.75;6.95;;;8.70;99.90;;;;;;5055501;28;20096;-78
2021/05/19 03:27:22;;;;;;;10.10;8.32;;;8.80;99.90;;;;;;5057632;28;20104;-78
2021/05/19 03:29:47;;;;;;;8.98;7.72;;;8.80;99.90;;;;;;5057448;28;20068;-78
2021/05/19 03:32:13;;;;;;;10.63;8.02;;;8.80;99.90;;;;;;5058033;28;20032;-78
2021/05/19 03:34:38;;;;;;;9.30;8.07;;;8.80;99.90;;;;;;5057537;28;20096;-78
2021/05/19 03:37:04;;;;;;;9.98;6.95;;;8.90;99.90;;;;;;5054637;28;20065;-78
2021/05/19 03:39:30;;;;;;;8.13;7.25;;;8.90;99.90;;;;;;5057910;28;20096;-78
2021/05/19 03:41:55;;;;;;;9.82;7.70;;;8.90;99.90;;;;;;5058034;28;20035;-78
2021/05/19 03:44:21;;;;;;;8.73;7.57;;;8.90;99.90;;;;;;5071782;28;20044;-78
2021/05/19 03:46:48;;;;;;;9.48;7.70;;;9.00;99.90;;;;;;5055928;28;20075;-78
2021/05/19 03:49:14;;;;;;;9.32;8.15;;;9.00;99.90;;;;;;5055480;28;20017;-78
2021/05/19 03:51:40;;;;;;;9.63;8.13;;;9.00;99.90;;;;;;5070904;28;20038;-78
2021/05/19 03:54:06;;;;;;;10.55;7.68;;;9.10;99.90;;;;;;5054426;28;20476;-78
2021/05/19 03:56:31;;;;;;;9.15;8.25;;;9.10;99.90;;;;;;5056610;28;20025;-78
2021/05/19 03:58:57;;;;;;;11.05;8.60;;;9.10;99.90;;;;;;5057607;28;20108;-78
2021/05/19 04:01:23;;;;;;;10.52;9.40;;;9.20;99.90;;;;;;5056083;28;20025;-78
2021/05/19 04:03:51;;;;;;;11.23;8.77;;;9.20;99.90;;;;;;5057010;28;20025;-78
2021/05/19 04:06:21;;;;;;;13.70;10.68;;;9.20;99.90;;;;;;5055214;28;20063;-78
2021/05/19 04:08:46;;;;;;;;;;;9.20;99.90;;;;;;5055495;28;20062;-78
2021/05/19 04:11:12;;;;;;;13.23;10.55;;;9.20;99.90;;;;;;5054378;28;20003;-78
2021/05/19 04:13:38;;;;;;;10.73;9.63;;;9.20;99.90;;;;;;5058466;28;20028;-79
2021/05/19 04:16:04;;;;;;;12.75;10.75;;;9.20;99.90;;;;;;5056356;28;20029;-79
2021/05/19 04:18:29;;;;;;;13.75;12.05;;;9.20;99.90;;;;;;5071339;28;20029;-78
2021/05/19 04:20:55;;;;;;;11.70;9.30;;;9.20;99.90;;;;;;5055311;28;20472;-79
2021/05/19 04:23:22;;;;;;;10.75;9.65;;;9.30;99.90;;;;;;5054876;28;20025;-79
2021/05/19 04:25:48;;;;;;;15.48;11.48;;;9.30;99.90;;;;;;5054771;28;20017;-79
2021/05/19 04:28:14;;;;;;;13.75;10.75;;;9.30;99.90;;;;;;5053964;28;20035;-78
2021/05/19 04:30:39;;;;;;;13.98;11.27;;;9.30;99.90;;;;;;5057127;28;20021;-79
2021/05/19 04:33:05;;;;;;;16.25;11.07;;;9.40;99.90;;;;;;5054714;28;20025;-78
2021/05/19 04:35:32;;;;;;;13.73;10.98;;;9.40;99.90;;;;;;5055610;28;20528;-78
2021/05/19 04:37:59;;;;;;;14.18;11.50;;;9.40;99.90;;;;;;5056736;28;20594;-78
2021/05/19 04:40:25;;;;;;;12.70;10.73;;;9.40;99.90;;;;;;5055581;28;20025;-78
2021/05/19 04:42:50;;;;;;;14.38;10.88;;;9.40;99.90;;;;;;5058613;28;20025;-79
2021/05/19 04:45:16;;;;;;;13.45;12.05;;;9.50;99.90;;;;;;5059280;28;20049;-78
2021/05/19 04:47:42;;;;;;;13.65;10.95;;;9.50;99.90;;;;;;5054826;28;20023;-78
2021/05/19 04:50:09;;;;;;;14.05;10.52;;;9.50;99.90;;;;;;5055095;28;20051;-79
2021/05/19 04:52:36;;;;;;;15.75;11.32;;;9.60;99.90;;;;;;5052502;28;20024;-78
2021/05/19 04:55:05;;;;;;;15.38;10.73;;;9.60;99.90;;;;;;5056033;28;20033;-79
2021/05/19 04:57:30;;;;;;;12.40;10.15;;;9.60;99.90;;;;;;5055687;28;20412;-79
2021/05/19 04:59:56;;;;;;;13.48;10.05;;;9.70;99.90;;;;;;5057236;28;20017;-78
2021/05/19 05:02:21;;;;;;;10.95;9.23;;;9.70;99.90;;;;;;5055372;28;20484;-79
2021/05/19 05:04:47;;;;;;;16.55;10.70;;;9.80;99.90;;;;;;5057079;28;20074;-78
2021/05/19 05:07:13;;;;;;;14.15;11.48;;;9.80;99.90;;;;;;5054801;28;20096;-78
2021/05/19 05:09:38;;;;;;;16.13;11.65;;;9.80;99.90;;;;;;5053520;28;20029;-78
2021/05/19 05:12:04;;;;;;;14.05;11.48;;;9.90;99.90;;;;;;5055753;28;20044;-79
2021/05/19 05:14:29;;;;;;;15.98;12.25;;;9.90;99.90;;;;;;5055290;28;20032;-78
2021/05/19 05:16:55;;;;;;;22.02;13.73;;;9.90;99.90;;;;;;5055868;28;20032;-78
2021/05/19 05:19:20;;;;;;;17.02;13.50;;;9.90;99.90;;;;;;5053938;28;20029;-79
2021/05/19 05:21:46;;;;;;;18.23;12.25;;;9.80;99.90;;;;;;5052720;28;20074;-78
2021/05/19 05:24:12;;;;;;;19.65;12.23;;;9.90;99.90;;;;;;5069836;28;20052;-78
2021/05/19 05:26:37;;;;;;;16.90;12.85;;;9.90;99.90;;;;;;5053264;28;20028;-78
2021/05/19 05:29:03;;;;;;;18.48;11.95;;;9.90;99.90;;;;;;5054026;28;20016;-78
2021/05/19 05:31:29;;;;;;;15.13;12.10;;;10.00;99.90;;;;;;5055056;28;20096;-78
2021/05/19 05:33:54;;;;;;;17.45;11.88;;;10.00;99.90;;;;;;5053781;28;20132;-79
2021/05/19 05:36:20;;;;;;;20.00;12.85;;;10.10;99.90;;;;;;5058738;28;20052;-79
2021/05/19 05:38:46;;;;;;;15.77;13.13;;;10.10;99.90;;;;;;5052885;28;20029;-78
2021/05/19 05:41:11;;;;;;;17.92;12.68;;;10.10;99.90;;;;;;5062166;28;20024;-78
2021/05/19 05:43:37;;;;;;;17.02;12.43;;;10.10;99.90;;;;;;5072989;28;20492;-78
2021/05/19 05:46:03;;;;;;;17.95;12.10;;;10.10;99.90;;;;;;5088433;28;20032;-78
2021/05/19 05:48:28;;;;;;;15.57;12.02;;;10.20;99.90;;;;;;5072054;28;20040;-78
2021/05/19 05:50:54;;;;;;;15.13;11.93;;;10.30;99.90;;;;;;5072515;28;20021;-78
2021/05/19 05:53:20;;;;;;;17.92;12.38;;;10.40;99.90;;;;;;5073296;28;20028;-78
2021/05/19 05:55:45;;;;;;;16.45;12.35;;;10.50;99.90;;;;;;5088800;28;20031;-78
2021/05/19 05:58:12;;;;;;;16.45;12.07;;;10.50;99.90;;;;;;5073206;28;20400;-78
2021/05/19 06:00:37;;;;;;;16.38;13.18;;;10.60;99.90;;;;;;5072881;28;20146;-78
2021/05/19 06:03:04;;;;;;;18.17;12.88;;;10.60;99.90;;;;;;5088745;28;20489;-78
2021/05/19 06:05:30;;;;;;;21.33;14.43;;;10.60;99.90;;;;;;5072976;28;20029;-78
2021/05/19 06:07:55;;;;;;;23.65;14.15;;;10.50;99.90;;;;;;5073073;28;20021;-78
2021/05/19 06:10:21;;;;;;;18.63;13.35;;;10.60;99.90;;;;;;5072895;28;20151;-82
2021/05/19 06:12:46;;;;;;;20.42;13.63;;;10.50;99.90;;;;;;5071349;28;20364;-79
2021/05/19 06:15:12;;;;;;;23.55;14.75;;;10.60;99.90;;;;;;5072464;28;20516;-78
2021/05/19 06:17:38;;;;;;;21.50;14.95;;;10.60;99.90;;;;;;5072528;28;20039;-78
2021/05/19 06:20:05;;;;;;;22.40;13.73;;;10.50;99.90;;;;;;5072419;28;20028;-78
2021/05/19 06:22:30;;;;;;;18.00;14.05;;;10.50;99.90;;;;;;5072614;28;20480;-79
2021/05/19 06:24:56;;;;;;;21.48;16.23;;;10.40;99.90;;;;;;5071283;28;20023;-79
2021/05/19 06:27:22;;;;;;;21.40;13.93;;;10.40;99.90;;;;;;5072129;28;20024;-78
2021/05/19 06:29:47;;;;;;;19.20;14.23;;;10.40;99.90;;;;;;5072271;28;20029;-79
2021/05/19 06:32:13;;;;;;;24.25;15.52;;;10.50;99.90;;;;;;5072673;28;20029;-79
2021/05/19 06:34:39;;;;;;;20.25;13.75;;;10.50;99.90;;;;;;5072938;28;20480;-78
2021/05/19 06:37:05;;;;;;;20.58;14.23;;;10.60;99.90;;;;;;5071316;28;20052;-79
2021/05/19 06:39:31;;;;;;;33.17;16.63;;;10.70;99.90;;;;;;5072852;28;20107;-79
2021/05/19 06:41:57;;;;;;;21.63;14.90;;;10.70;99.90;;;;;;5072739;28;20032;-79
2021/05/19 06:44:22;;;;;;;21.33;14.32;;;10.70;99.90;;;;;;5072484;28;20107;-79
2021/05/19 06:46:49;;;;;;;20.90;15.15;;;10.70;99.90;;;;;;5072567;28;20463;-79
2021/05/19 06:49:15;;;;;;;25.55;15.90;;;10.80;99.90;;;;;;5072406;28;20040;-80
2021/05/19 06:51:42;;;;;;;22.30;15.23;;;10.80;99.90;;;;;;5072738;28;20056;-80
2021/05/19 06:54:08;;;;;;;21.02;14.63;;;10.80;99.90;;;;;;5071963;28;20503;-79
2021/05/19 06:56:34;;;;;;;23.67;16.02;;;10.80;99.90;;;;;;5071567;28;20071;-78
2021/05/19 06:59:01;;;;;;;23.80;15.85;;;10.80;99.90;;;;;;5071773;28;20048;-78
2021/05/19 07:01:27;;;;;;;26.45;16.77;;;10.80;99.90;;;;;;5071476;28;20009;-80
2021/05/19 07:03:52;;;;;;;26.83;17.85;;;10.80;99.90;;;;;;5074848;28;20021;-78
2021/05/19 07:06:19;;;;;;;25.95;17.00;;;10.90;99.90;;;;;;5075366;28;20032;-82
2021/05/19 07:08:44;;;;;;;29.95;17.73;;;10.90;99.90;;;;;;5092238;28;20020;-78
2021/05/19 07:11:10;;;;;;;30.45;20.85;;;11.00;99.90;;;;;;5085128;28;20025;-78
2021/05/19 07:13:36;;;;;;;28.98;19.10;;;11.10;99.90;;;;;;5072082;28;20498;-78
2021/05/19 07:16:02;;;;;;;28.65;17.33;;;11.20;99.90;;;;;;5073948;28;20048;-78
2021/05/19 07:18:28;;;;;;;30.58;19.42;;;11.40;99.90;;;;;;5075457;28;20393;-78
2021/05/19 07:20:55;;;;;;;25.73;17.90;;;11.50;99.90;;;;;;5075339;28;20074;-78
2021/05/19 07:23:20;;;;;;;30.67;19.80;;;11.60;99.90;;;;;;5073324;28;20036;-78
2021/05/19 07:25:46;;;;;;;33.92;21.65;;;11.80;99.90;;;;;;5071834;28;20020;-78
2021/05/19 07:28:13;;;;;;;24.67;19.02;;;11.90;99.90;;;;;;5073396;28;20032;-78
2021/05/19 07:30:39;;;;;;;27.95;19.08;;;11.90;99.90;;;;;;5075147;28;20017;-78
2021/05/19 07:33:06;;;;;;;27.30;18.52;;;11.90;99.90;;;;;;5073121;28;20025;-78
2021/05/19 07:35:32;;;;;;;24.33;19.17;;;11.80;99.90;;;;;;5075753;28;20411;-78
2021/05/19 07:37:57;;;;;;;30.55;21.13;;;11.80;99.90;;;;;;5054290;28;20056;-78
2021/05/19 07:40:24;;;;;;;24.42;19.20;;;11.90;99.90;;;;;;5060549;28;20036;-78
2021/05/19 07:42:50;;;;;;;28.52;21.42;;;11.90;99.90;;;;;;5075416;28;20039;-78
2021/05/19 07:45:16;;;;;;;27.30;20.65;;;11.80;99.90;;;;;;5075395;28;20395;-78
2021/05/19 07:47:42;;;;;;;28.58;19.80;;;11.80;99.90;;;;;;5073777;28;20394;-78
2021/05/19 07:50:08;;;;;;;35.63;22.33;;;11.80;99.90;;;;;;5075469;28;20020;-78
2021/05/19 07:52:34;;;;;;;28.60;21.13;;;11.80;99.90;;;;;;5075257;28;20056;-78
2021/05/19 07:54:59;;;;;;;27.20;20.92;;;11.90;99.90;;;;;;5075368;28;20059;-78
2021/05/19 07:57:38;;;;;;;30.10;21.85;;;12.10;99.90;;;;;;5072967;28;20025;-78
2021/05/19 08:00:38;;;;;;;31.48;22.05;;;12.20;99.90;;;;;;5075231;28;20040;-78
2021/05/19 08:02:52;;;;;;;30.25;22.48;;;12.30;99.90;;;;;;5074705;28;20075;-78
2021/05/19 08:05:18;;;;;;;31.30;21.45;;;12.40;99.90;;;;;;5075176;28;20060;-78
2021/05/19 08:07:43;;;;;;;31.92;21.23;;;12.50;99.90;;;;;;5084088;28;20054;-78
2021/05/19 08:10:10;;;;;;;29.35;20.55;;;12.60;99.90;;;;;;5095711;28;20051;-78
2021/05/19 08:12:36;;;;;;;20.00;17.65;;;12.60;99.90;;;;;;5093471;28;20060;-77
2021/05/19 08:15:01;;;;;;;31.63;19.65;;;12.70;99.90;;;;;;5092487;28;20051;-77
2021/05/19 08:17:27;;;;;;;27.83;20.23;;;12.80;99.90;;;;;;5086122;28;20490;-78
2021/05/19 08:19:52;;;;;;;29.80;20.65;;;12.80;99.90;;;;;;5074325;28;20732;-78
2021/05/19 08:22:18;;;;;;;29.30;19.90;;;12.90;99.90;;;;;;5074083;28;20455;-78
2021/05/19 08:24:44;;;;;;;24.50;19.35;;;12.80;99.90;;;;;;5074156;28;20051;-78
2021/05/19 08:27:11;;;;;;;26.80;21.42;;;12.80;99.90;;;;;;5073798;28;20022;-78
2021/05/19 08:29:37;;;;;;;25.83;19.45;;;12.80;99.90;;;;;;5048508;28;20043;-78
2021/05/19 08:32:03;;;;;;;27.92;20.48;;;12.80;99.90;;;;;;5054128;28;20028;-78
2021/05/19 08:34:28;;;;;;;26.75;20.48;;;12.90;99.90;;;;;;5061980;28;20020;-78
2021/05/19 08:36:54;;;;;;;28.27;20.80;;;12.90;99.90;;;;;;5073608;28;20040;-78
2021/05/19 08:39:20;;;;;;;24.92;19.98;;;12.90;99.90;;;;;;5073671;28;20024;-78
2021/05/19 08:41:50;;;;;;;26.73;19.77;;;13.00;99.90;;;;;;5070855;28;20024;-78
2021/05/19 08:44:16;;;;;;;;;;;12.90;99.90;;;;;;5074249;28;20107;-78
2021/05/19 08:46:49;;;;;;;25.33;20.60;;;12.90;99.90;;;;;;5073885;28;19991;-78
2021/05/19 08:49:16;;;;;;;26.40;19.20;;;13.00;99.90;;;;;;5071714;28;20027;-78
2021/05/19 08:51:42;;;;;;;20.27;18.10;;;13.20;99.90;;;;;;5073522;28;20028;-78
2021/05/19 08:54:09;;;;;;;24.95;18.92;;;13.30;99.90;;;;;;5073689;28;20113;-78
2021/05/19 08:56:42;;;;;;;26.95;18.65;;;13.40;99.90;;;;;;5073368;28;20059;-78
2021/05/19 08:59:08;;;;;;;26.27;18.25;;;13.50;99.90;;;;;;5072658;28;20021;-78
2021/05/19 09:01:49;;;;;;;22.48;17.92;;;13.40;99.90;;;;;;5068265;28;20169;-81
2021/05/19 09:04:24;;;;;;;26.20;17.67;;;13.50;99.90;;;;;;5072413;28;20391;-79
2021/05/19 09:06:55;;;;;;;26.23;18.60;;;13.40;99.90;;;;;;5073937;28;20483;-78
2021/05/19 09:09:23;;;;;;;19.50;17.20;;;13.40;99.90;;;;;;5071882;28;20032;-78
2021/05/19 09:12:06;;;;;;;22.27;17.65;;;13.40;99.70;;;;;;5070852;28;20021;-78
2021/05/19 09:14:37;;;;;;;22.10;17.95;;;13.40;99.70;;;;;;5087302;28;20119;-79
2021/05/19 09:17:25;;;;;;;22.13;18.67;;;13.30;99.70;;;;;;5073617;28;20020;-79
2021/05/19 09:20:04;;;;;;;26.77;19.50;;;13.30;99.40;;;;;;5073581;28;20021;-79
2021/05/19 09:22:33;;;;;;;19.25;16.08;;;13.10;99.80;;;;;;5073299;28;20068;-79
2021/05/19 09:25:01;;;;;;;22.13;17.35;;;13.20;99.90;;;;;;5072222;28;20032;-78
2021/05/19 09:27:41;;;;;;;22.08;15.75;;;13.40;99.00;;;;;;5072843;28;20096;-78
2021/05/19 09:30:08;;;;;;;23.08;16.33;;;13.60;99.30;;;;;;5070447;28;20023;-78
2021/05/19 09:32:39;;;;;;;24.17;16.98;;;13.70;99.10;;;;;;5073448;28;20047;-78
2021/05/19 09:35:10;;;;;;;22.00;16.63;;;13.80;98.30;;;;;;5088886;28;20035;-78
2021/05/19 09:37:36;;;;;;;20.35;16.08;;;13.90;98.20;;;;;;5073272;28;20048;-78
2021/05/19 09:40:10;;;;;;;24.05;17.73;;;14.00;97.70;;;;;;5072040;28;20074;-78
2021/05/19 09:42:36;;;;;;;18.92;16.15;;;14.20;97.70;;;;;;5072461;28;20487;-78
2021/05/19 09:45:22;;;;;;;19.58;17.02;;;14.30;96.70;;;;;;5071977;28;20031;-78
2021/05/19 09:47:49;;;;;;;19.42;15.65;;;14.20;96.30;;;;;;5073291;28;20012;-78
2021/05/19 09:50:16;;;;;;;23.15;15.85;;;14.00;96.60;;;;;;5073049;28;20103;-78
2021/05/19 09:53:02;;;;;;;22.48;15.50;;;14.00;97.30;;;;;;5073245;28;20052;-78
2021/05/19 09:55:27;;;;;;;21.15;13.32;;;14.40;97.50;;;;;;5073241;28;20028;-78
2021/05/19 09:57:53;;;;;;;20.13;13.05;;;14.80;96.80;;;;;;5071998;28;20028;-78
2021/05/19 10:00:24;;;;;;;12.45;9.82;;;16.30;96.50;;;;;;5073030;28;20369;-79
2021/05/19 10:02:51;;;;;;;12.50;8.07;;;18.50;92.60;;;;;;5072549;28;20494;-79
2021/05/19 10:05:27;;;;;;;9.35;7.38;;;20.00;85.00;;;;;;5072365;28;20476;-79
2021/05/19 10:07:54;;;;;;;11.85;7.25;;;21.10;77.50;;;;;;5071228;28;20097;-79
2021/05/19 10:10:21;;;;;;;13.23;6.60;;;22.10;74.10;;;;;;5071243;28;20050;-79
2021/05/19 10:12:47;;;;;;;10.88;7.03;;;22.60;69.10;;;;;;5072401;28;20475;-79
2021/05/19 10:15:18;;;;;;;11.98;5.13;;;22.40;65.80;;;;;;5072449;28;20032;-79
2021/05/19 10:17:47;;;;;;;8.60;5.55;;;21.90;65.90;;;;;;5070994;28;20155;-79
2021/05/19 10:20:22;;;;;;;9.70;7.05;;;21.30;66.70;;;;;;5071071;28;20044;-79
2021/05/19 10:22:49;;;;;;;12.95;7.05;;;20.40;67.30;;;;;;5070251;28;20020;-79
2021/05/19 10:25:38;;;;;;;9.38;6.05;;;19.40;70.00;;;;;;5072206;28;20020;-79
2021/05/19 10:28:14;;;;;;;8.80;6.63;;;18.50;72.50;;;;;;5069816;28;20367;-78
2021/05/19 10:30:41;;;;;;;9.55;6.03;;;17.90;75.50;;;;;;5072247;28;20481;-78
2021/05/19 10:33:27;;;;;;;9.45;6.63;;;17.60;78.00;;;;;;5071724;28;20107;-78
2021/05/19 10:35:56;;;;;;;10.13;6.25;;;17.30;78.50;;;;;;5071358;28;20032;-78
2021/05/19 10:38:32;;;;;;;10.18;5.90;;;16.90;79.60;;;;;;5074136;28;20520;-82
2021/05/19 10:41:00;;;;;;;8.40;4.60;;;16.40;80.20;;;;;;5073587;28;20035;-79
2021/05/19 10:43:48;;;;;;;6.88;3.25;;;16.00;81.50;;;;;;5075029;28;20361;-80
2021/05/19 10:46:17;;;;;;;5.22;3.13;;;15.70;83.60;;;;;;5075311;28;20056;-80
2021/05/19 10:48:52;;;;;;;7.63;3.55;;;15.40;88.50;;;;;;5075225;28;20032;-80
2021/05/19 10:51:45;;;;;;;6.60;4.82;;;15.10;88.40;;;;;;5076372;28;20032;-80
2021/05/19 11:00:12;;;;;;;4.72;1.92;;;13.80;91.30;;;;;;5075901;28;20036;-80
2021/05/19 11:03:05;;;;;;;3.60;1.70;;;13.30;92.30;;;;;;5075651;28;20024;-79
2021/05/19 11:05:33;;;;;;;2.50;1.42;;;12.60;96.10;;;;;;5074381;28;20511;-77
2021/05/19 11:08:05;;;;;;;5.68;1.70;;;12.30;99.00;;;;;;5073294;28;20049;-77
2021/05/19 11:10:31;;;;;;;3.58;1.20;;;12.00;99.90;;;;;;5075644;28;20541;-76
2021/05/19 11:12:57;;;;;;;2.72;1.20;;;11.90;99.90;;;;;;5075499;28;20471;-77
2021/05/19 11:15:41;;;;;;;2.58;0.90;;;11.80;99.90;;;;;;5075490;28;20031;-77
2021/05/19 11:20:57;;;;;;;1.95;0.70;;;11.60;99.90;;;;;;5050966;28;20033;-77
2021/05/19 11:23:22;;;;;;;3.97;1.05;;;11.50;99.90;;;;;;5057825;28;20045;-77
2021/05/19 11:25:49;;;;;;;2.00;0.80;;;11.50;99.90;;;;;;5067772;28;20024;-78
2021/05/19 11:28:24;;;;;;;1.35;0.70;;;11.40;99.90;;;;;;5075370;28;20092;-78
2021/05/19 11:30:50;;;;;;;2.58;0.63;;;11.40;99.90;;;;;;5075227;28;20021;-77
2021/05/19 11:33:20;;;;;;;2.08;0.80;;;11.40;99.90;;;;;;5075280;28;20027;-77
2021/05/19 11:35:49;;;;;;;1.58;0.75;;;11.40;99.90;;;;;;5075089;28;20012;-77
2021/05/19 11:38:16;;;;;;;3.42;1.40;;;11.40;99.90;;;;;;5075093;28;20095;-77
2021/05/19 11:40:49;;;;;;;2.80;1.00;;;11.40;99.90;;;;;;5075158;28;20028;-77
2021/05/19 11:43:15;;;;;;;1.90;0.90;;;11.40;99.90;;;;;;5075107;28;20023;-77
2021/05/19 11:45:41;;;;;;;1.40;0.85;;;11.40;99.90;;;;;;5075036;28;20021;-77
2021/05/19 11:48:28;;;;;;;1.95;0.60;;;11.50;99.90;;;;;;5074961;28;20095;-77
2021/05/19 11:50:54;;;;;;;1.50;0.70;;;11.60;99.90;;;;;;5072227;28;20542;-78
2021/05/19 11:53:20;;;;;;;1.30;0.70;;;11.60;99.90;;;;;;5074714;28;20099;-77
2021/05/19 11:55:53;;;;;;;1.23;0.52;;;11.70;99.90;;;;;;5074865;28;20104;-78
2021/05/19 11:58:20;;;;;;;1.27;0.82;;;11.90;99.90;;;;;;5073502;28;20021;-77
2021/05/19 12:00:53;;;;;;;0.88;0.57;;;11.90;99.90;;;;;;5072155;28;20112;-78
2021/05/19 12:03:21;;;;;;;1.25;0.70;;;12.00;99.90;;;;;;5073469;28;20691;-78
2021/05/19 12:05:56;;;;;;;2.92;1.00;;;12.00;99.90;;;;;;5063759;28;20896;-77
2021/05/19 12:08:24;;;;;;;1.85;0.80;;;12.10;99.90;;;;;;5070770;28;20412;-78
2021/05/19 12:11:27;;;;;;;1.38;0.90;;;12.10;99.90;;;;;;5073765;28;20032;-78
2021/05/19 12:13:55;;;;;;;2.00;0.95;;;12.30;99.90;;;;;;5023698;28;20039;-78
2021/05/19 12:16:48;;;;;;;2.72;0.80;;;12.30;99.90;;;;;;5073019;28;20086;-78
2021/05/19 12:19:17;;;;;;;1.83;1.10;;;12.30;99.90;;;;;;5069213;28;20036;-78
2021/05/19 12:21:52;;;;;;;1.42;0.90;;;12.30;99.90;;;;;;5070643;28;20108;-79
2021/05/19 12:24:20;;;;;;;2.58;1.00;;;12.40;99.90;;;;;;5071701;28;20029;-78
2021/05/19 12:26:46;;;;;;;1.83;1.00;;;12.60;99.90;;;;;;5087863;28;20028;-78
2021/05/19 12:29:36;;;;;;;1.60;0.90;;;12.80;99.90;;;;;;5065128;28;20020;-78
2021/05/19 12:32:19;;;;;;;4.40;1.48;;;13.10;99.90;;;;;;5074090;28;20013;-79
2021/05/19 12:34:47;;;;;;;1.98;0.85;;;13.20;99.90;;;;;;5073485;28;20186;-78
2021/05/19 12:37:13;;;;;;;1.60;0.88;;;13.30;99.90;;;;;;5072792;28;20098;-77
2021/05/19 12:39:43;;;;;;;1.30;0.80;;;13.50;99.90;;;;;;5073116;28;20074;-79
2021/05/19 12:42:17;;;;;;;1.58;0.90;;;13.70;99.90;;;;;;5072883;28;20027;-80
2021/05/19 12:44:43;;;;;;;1.00;0.80;;;14.00;99.90;;;;;;5071922;28;20481;-79
2021/05/19 12:47:12;;;;;;;3.00;1.00;;;14.10;99.90;;;;;;5073529;28;20016;-79
2021/05/19 12:49:41;;;;;;;1.98;1.00;;;14.40;99.90;;;;;;5067045;28;20442;-78
2021/05/19 12:52:16;;;;;;;3.30;1.27;;;14.70;99.90;;;;;;5042966;28;20024;-78
2021/05/19 12:54:46;;;;;;;1.70;0.70;;;15.10;99.90;;;;;;5070699;28;20104;-79